Terminal Aerodrome Forecast
Issued by NWS Austin/San Antonio, TX

Home | Current Version | Previous Version | Text Only | Print | Product List | Glossary On
Versions: 1 2 3 4 5 6 7 8 9 10 11 12 13 14 15 16
000
FTUS44 KEWX 071135
TAFAUS
TAF
KAUS 071135Z 0712/0818 17008KT P6SM BKN017 BKN250
     FM071400 18015KT P6SM SCT017 BKN025
     FM071700 18017KT P6SM SCT040
     FM080000 16014KT P6SM SCT070
     FM080500 17008KT P6SM BKN018
     FM081600 18014KT P6SM BKN035=

USA.gov is the U.S. government's official web portal to all federal, state and local government web resources and services.